Aeroporto :
LOGIN :

Iscrizione | Disclaimer

   EN    FR    IT 

 










Sommario :    VFR   VFR Marginale   IFR   IFR Intensivo   IFR Molto Intensivo
Visibilità : 
Base nubi : 
>= 8 km
>= 3000ft
5 / 8 km
1000 / 3000 ft
1500m / 5 km
500 / 1000 ft
800 / 1500m
200 / 500 ft
< 800m
< 200 ft
Simboli :   Temporali  Nebbia  Neve Forte  Precipitazioni Forti  Vento > 20 kt
SIGMETs :   Varie  Temporali  Ghiacco  Turbolenza  Onda orograficha  Ceneri Vulcaniche







- Altitudine del aeroporto : 112 ft
- Codice IATA : SVQ


LEZL - Sevilla San Pablo

ULTIMO METAR :
  • 241700Z 12013KT 090V160 CAVOK 22/07 Q1018 NOSIG

METARs OBSOLETI :
  • 241630Z 12015KT 080V150 CAVOK 23/07 Q1017 NOSIG
  • 241600Z 10011KT 070V140 CAVOK 24/06 Q1017 NOSIG
  • 241530Z 10017KT 070V160 CAVOK 24/06 Q1017 NOSIG
  • 241500Z 11018KT 080V140 CAVOK 24/06 Q1017 NOSIG
  • 241430Z 12016KT 080V160 CAVOK 24/07 Q1018 NOSIG

TAF TAF LEZL
Valido dal 24 a 15 ore il 25 a 15 ore UTC


241400Z 2415/2515 11015KT 9999 SCT045 TX25/2515Z TN12/2506Z
TEMPO 2415/2417 11018G28KT
PROB30
TEMPO 2415/2418 SHRA SCT040CB
BECMG 2418/2421 05005KT
BECMG 2506/2509 06015KT
Nessun NOTAM noto per questo aeroporto.



MetMap, La meteo Aeronautica in un colpo d'occhio ! - Copyright ORBIFLY Dicembre 2007 - Disclaimer

ORBIFLY MET'MAP TEAM :

Programmazione e sviluppo : Alexandra Zaïnal
Concezione e sviluppo : Baudouin d'Aumeries
Co-Programmazione e sviluppo : Marc-Olivier Méhu
Supporto tecnico e logistico : Manuel Goepfert
Aiuto per la traduzione : Arnaldo La Scala

Contatto : metmap@orbifly.com




FONTI E CREDITI :

   NOAA